sensor_id;sensor_type;location;lat;lon;timestamp;P1;durP1;ratioP1;P2;durP2;ratioP2
20908;SDS011;10614;53.198;6.570;2022-08-25T00:00:11;3.83;;;2.78;;
20908;SDS011;10614;53.198;6.570;2022-08-25T00:02:13;4.55;;;2.53;;
20908;SDS011;10614;53.198;6.570;2022-08-25T00:04:17;3.85;;;2.70;;
20908;SDS011;10614;53.198;6.570;2022-08-25T00:06:19;3.85;;;2.80;;
20908;SDS011;10614;53.198;6.570;2022-08-25T00:08:21;3.95;;;2.65;;
20908;SDS011;10614;53.198;6.570;2022-08-25T00:10:23;3.83;;;2.47;;
20908;SDS011;10614;53.198;6.570;2022-08-25T00:12:25;3.90;;;2.90;;
20908;SDS011;10614;53.198;6.570;2022-08-25T00:14:28;3.83;;;2.90;;
20908;SDS011;10614;53.198;6.570;2022-08-25T00:16:32;4.45;;;2.78;;
20908;SDS011;10614;53.198;6.570;2022-08-25T00:18:34;3.72;;;2.70;;
20908;SDS011;10614;53.198;6.570;2022-08-25T00:20:38;3.03;;;2.17;;
20908;SDS011;10614;53.198;6.570;2022-08-25T00:22:39;4.47;;;2.42;;
20908;SDS011;10614;53.198;6.570;2022-08-25T00:24:41;2.85;;;2.25;;
20908;SDS011;10614;53.198;6.570;2022-08-25T00:26:44;3.72;;;2.40;;
20908;SDS011;10614;53.198;6.570;2022-08-25T00:30:49;3.25;;;2.08;;
20908;SDS011;10614;53.198;6.570;2022-08-25T00:32:51;3.45;;;2.47;;
20908;SDS011;10614;53.198;6.570;2022-08-25T00:34:53;2.40;;;2.10;;
20908;SDS011;10614;53.198;6.570;2022-08-25T00:36:56;4.15;;;2.05;;
20908;SDS011;10614;53.198;6.570;2022-08-25T00:38:57;3.20;;;2.15;;
20908;SDS011;10614;53.198;6.570;2022-08-25T00:40:59;3.42;;;2.33;;
20908;SDS011;10614;53.198;6.570;2022-08-25T00:43:07;3.28;;;2.10;;
20908;SDS011;10614;53.198;6.570;2022-08-25T00:45:09;2.50;;;1.95;;
20908;SDS011;10614;53.198;6.570;2022-08-25T00:47:11;3.53;;;2.30;;
20908;SDS011;10614;53.198;6.570;2022-08-25T00:49:14;2.45;;;1.92;;
20908;SDS011;10614;53.198;6.570;2022-08-25T00:51:21;3.33;;;1.98;;
20908;SDS011;10614;53.198;6.570;2022-08-25T00:53:29;4.40;;;2.00;;
20908;SDS011;10614;53.198;6.570;2022-08-25T00:55:32;4.95;;;2.38;;
20908;SDS011;10614;53.198;6.570;2022-08-25T00:57:40;2.67;;;2.00;;
20908;SDS011;10614;53.198;6.570;2022-08-25T00:59:44;3.83;;;2.20;;
20908;SDS011;10614;53.198;6.570;2022-08-25T01:01:46;3.03;;;1.88;;
20908;SDS011;10614;53.198;6.570;2022-08-25T01:03:48;3.58;;;2.20;;
20908;SDS011;10614;53.198;6.570;2022-08-25T01:05:50;2.17;;;1.77;;
20908;SDS011;10614;53.198;6.570;2022-08-25T01:07:54;3.10;;;2.17;;
20908;SDS011;10614;53.198;6.570;2022-08-25T01:09:58;3.58;;;2.00;;
20908;SDS011;10614;53.198;6.570;2022-08-25T01:12:01;3.20;;;1.70;;
20908;SDS011;10614;53.198;6.570;2022-08-25T01:14:03;3.35;;;2.05;;
20908;SDS011;10614;53.198;6.570;2022-08-25T01:16:06;2.83;;;1.95;;
20908;SDS011;10614;53.198;6.570;2022-08-25T01:18:08;2.35;;;1.80;;
20908;SDS011;10614;53.198;6.570;2022-08-25T01:20:10;4.75;;;2.03;;
20908;SDS011;10614;53.198;6.570;2022-08-25T01:22:14;2.30;;;1.77;;
20908;SDS011;10614;53.198;6.570;2022-08-25T01:24:21;2.72;;;1.92;;
20908;SDS011;10614;53.198;6.570;2022-08-25T01:26:31;3.10;;;1.73;;
20908;SDS011;10614;53.198;6.570;2022-08-25T01:28:34;3.90;;;2.42;;
20908;SDS011;10614;53.198;6.570;2022-08-25T01:30:37;3.20;;;1.65;;
20908;SDS011;10614;53.198;6.570;2022-08-25T01:32:38;2.83;;;2.03;;
20908;SDS011;10614;53.198;6.570;2022-08-25T01:34:42;2.42;;;1.85;;
20908;SDS011;10614;53.198;6.570;2022-08-25T01:36:45;3.10;;;1.88;;
20908;SDS011;10614;53.198;6.570;2022-08-25T01:38:48;2.78;;;1.88;;
20908;SDS011;10614;53.198;6.570;2022-08-25T01:40:50;2.70;;;1.70;;
20908;SDS011;10614;53.198;6.570;2022-08-25T01:42:53;3.03;;;2.10;;
20908;SDS011;10614;53.198;6.570;2022-08-25T01:45:02;4.43;;;1.90;;
20908;SDS011;10614;53.198;6.570;2022-08-25T01:47:05;2.50;;;1.67;;
20908;SDS011;10614;53.198;6.570;2022-08-25T01:49:07;2.28;;;1.73;;
20908;SDS011;10614;53.198;6.570;2022-08-25T01:51:09;2.50;;;1.77;;
20908;SDS011;10614;53.198;6.570;2022-08-25T01:53:11;2.55;;;1.88;;
20908;SDS011;10614;53.198;6.570;2022-08-25T01:55:19;2.78;;;1.88;;
20908;SDS011;10614;53.198;6.570;2022-08-25T01:57:21;2.22;;;1.52;;
20908;SDS011;10614;53.198;6.570;2022-08-25T01:59:25;2.63;;;1.80;;
20908;SDS011;10614;53.198;6.570;2022-08-25T02:01:27;2.80;;;1.80;;
20908;SDS011;10614;53.198;6.570;2022-08-25T02:03:29;4.60;;;1.70;;
20908;SDS011;10614;53.198;6.570;2022-08-25T02:05:31;2.25;;;1.45;;
20908;SDS011;10614;53.198;6.570;2022-08-25T02:07:32;2.45;;;1.67;;
20908;SDS011;10614;53.198;6.570;2022-08-25T02:09:35;2.28;;;1.60;;
20908;SDS011;10614;53.198;6.570;2022-08-25T02:11:41;3.33;;;1.83;;
20908;SDS011;10614;53.198;6.570;2022-08-25T02:13:44;2.78;;;1.60;;
20908;SDS011;10614;53.198;6.570;2022-08-25T02:15:46;3.38;;;1.85;;
20908;SDS011;10614;53.198;6.570;2022-08-25T02:17:50;2.10;;;1.50;;
20908;SDS011;10614;53.198;6.570;2022-08-25T02:19:52;3.03;;;1.83;;
20908;SDS011;10614;53.198;6.570;2022-08-25T02:21:55;4.13;;;1.75;;
20908;SDS011;10614;53.198;6.570;2022-08-25T02:23:58;2.17;;;1.58;;
20908;SDS011;10614;53.198;6.570;2022-08-25T02:26:00;2.78;;;1.52;;
20908;SDS011;10614;53.198;6.570;2022-08-25T02:28:03;3.08;;;1.65;;
20908;SDS011;10614;53.198;6.570;2022-08-25T02:30:06;3.23;;;2.00;;
20908;SDS011;10614;53.198;6.570;2022-08-25T02:32:08;3.38;;;2.00;;
20908;SDS011;10614;53.198;6.570;2022-08-25T02:34:10;2.28;;;1.63;;
20908;SDS011;10614;53.198;6.570;2022-08-25T02:36:12;2.80;;;1.90;;
20908;SDS011;10614;53.198;6.570;2022-08-25T02:38:14;2.70;;;2.10;;
20908;SDS011;10614;53.198;6.570;2022-08-25T02:40:16;1.67;;;1.50;;
20908;SDS011;10614;53.198;6.570;2022-08-25T02:42:20;2.88;;;1.95;;
20908;SDS011;10614;53.198;6.570;2022-08-25T02:44:24;3.13;;;1.80;;
20908;SDS011;10614;53.198;6.570;2022-08-25T02:46:26;2.38;;;1.73;;
20908;SDS011;10614;53.198;6.570;2022-08-25T02:48:28;2.67;;;1.88;;
20908;SDS011;10614;53.198;6.570;2022-08-25T02:50:29;2.50;;;2.00;;
20908;SDS011;10614;53.198;6.570;2022-08-25T02:52:32;2.13;;;1.60;;
20908;SDS011;10614;53.198;6.570;2022-08-25T02:54:35;2.53;;;1.80;;
20908;SDS011;10614;53.198;6.570;2022-08-25T02:56:36;3.72;;;1.95;;
20908;SDS011;10614;53.198;6.570;2022-08-25T02:58:39;3.33;;;2.00;;
20908;SDS011;10614;53.198;6.570;2022-08-25T03:00:43;3.55;;;1.92;;
20908;SDS011;10614;53.198;6.570;2022-08-25T03:02:45;3.00;;;2.00;;
20908;SDS011;10614;53.198;6.570;2022-08-25T03:04:47;3.00;;;1.85;;
20908;SDS011;10614;53.198;6.570;2022-08-25T03:06:49;3.22;;;1.80;;
20908;SDS011;10614;53.198;6.570;2022-08-25T03:08:51;3.83;;;2.13;;
20908;SDS011;10614;53.198;6.570;2022-08-25T03:10:53;3.15;;;2.00;;
20908;SDS011;10614;53.198;6.570;2022-08-25T03:12:55;4.32;;;1.98;;
20908;SDS011;10614;53.198;6.570;2022-08-25T03:14:56;2.83;;;1.88;;
20908;SDS011;10614;53.198;6.570;2022-08-25T03:17:00;2.78;;;1.70;;
20908;SDS011;10614;53.198;6.570;2022-08-25T03:19:01;2.38;;;1.77;;
20908;SDS011;10614;53.198;6.570;2022-08-25T03:21:04;2.70;;;1.73;;
20908;SDS011;10614;53.198;6.570;2022-08-25T03:23:06;2.53;;;1.63;;
20908;SDS011;10614;53.198;6.570;2022-08-25T03:25:07;3.60;;;2.30;;
20908;SDS011;10614;53.198;6.570;2022-08-25T03:27:28;3.92;;;2.10;;
20908;SDS011;10614;53.198;6.570;2022-08-25T03:29:30;2.20;;;1.70;;
20908;SDS011;10614;53.198;6.570;2022-08-25T03:31:33;2.72;;;1.70;;
20908;SDS011;10614;53.198;6.570;2022-08-25T03:33:37;3.25;;;1.90;;
20908;SDS011;10614;53.198;6.570;2022-08-25T03:35:39;1.85;;;1.50;;
20908;SDS011;10614;53.198;6.570;2022-08-25T03:37:40;3.47;;;2.05;;
20908;SDS011;10614;53.198;6.570;2022-08-25T03:39:42;2.50;;;1.80;;
20908;SDS011;10614;53.198;6.570;2022-08-25T03:41:44;3.08;;;1.90;;
20908;SDS011;10614;53.198;6.570;2022-08-25T03:43:47;3.20;;;1.85;;
20908;SDS011;10614;53.198;6.570;2022-08-25T03:45:50;3.75;;;2.00;;
20908;SDS011;10614;53.198;6.570;2022-08-25T03:47:52;2.95;;;1.80;;
20908;SDS011;10614;53.198;6.570;2022-08-25T03:49:55;2.85;;;1.95;;
20908;SDS011;10614;53.198;6.570;2022-08-25T03:51:57;2.90;;;1.70;;
20908;SDS011;10614;53.198;6.570;2022-08-25T03:54:00;2.83;;;1.73;;
20908;SDS011;10614;53.198;6.570;2022-08-25T03:56:02;3.17;;;1.92;;
20908;SDS011;10614;53.198;6.570;2022-08-25T03:58:04;2.90;;;1.75;;
20908;SDS011;10614;53.198;6.570;2022-08-25T04:00:07;2.20;;;1.50;;
20908;SDS011;10614;53.198;6.570;2022-08-25T04:02:11;2.60;;;1.60;;
20908;SDS011;10614;53.198;6.570;2022-08-25T04:04:13;3.28;;;1.85;;
20908;SDS011;10614;53.198;6.570;2022-08-25T04:06:18;2.03;;;1.65;;
20908;SDS011;10614;53.198;6.570;2022-08-25T04:08:20;4.40;;;1.80;;
20908;SDS011;10614;53.198;6.570;2022-08-25T04:10:22;5.63;;;2.38;;
20908;SDS011;10614;53.198;6.570;2022-08-25T04:12:24;2.00;;;1.52;;
20908;SDS011;10614;53.198;6.570;2022-08-25T04:14:26;3.15;;;1.73;;
20908;SDS011;10614;53.198;6.570;2022-08-25T04:16:28;3.10;;;1.88;;
20908;SDS011;10614;53.198;6.570;2022-08-25T04:18:31;2.33;;;1.70;;
20908;SDS011;10614;53.198;6.570;2022-08-25T04:20:33;4.22;;;1.88;;
20908;SDS011;10614;53.198;6.570;2022-08-25T04:22:36;3.70;;;1.92;;
20908;SDS011;10614;53.198;6.570;2022-08-25T04:24:38;2.47;;;1.50;;
20908;SDS011;10614;53.198;6.570;2022-08-25T04:26:41;3.78;;;1.70;;
20908;SDS011;10614;53.198;6.570;2022-08-25T04:30:47;2.88;;;1.90;;
20908;SDS011;10614;53.198;6.570;2022-08-25T04:32:49;3.15;;;2.17;;
20908;SDS011;10614;53.198;6.570;2022-08-25T04:34:50;5.22;;;2.25;;
20908;SDS011;10614;53.198;6.570;2022-08-25T04:36:53;3.92;;;2.10;;
20908;SDS011;10614;53.198;6.570;2022-08-25T04:38:56;3.58;;;2.22;;
20908;SDS011;10614;53.198;6.570;2022-08-25T04:40:58;3.55;;;1.98;;
20908;SDS011;10614;53.198;6.570;2022-08-25T04:43:01;2.53;;;1.75;;
20908;SDS011;10614;53.198;6.570;2022-08-25T04:45:04;3.13;;;2.13;;
20908;SDS011;10614;53.198;6.570;2022-08-25T04:47:06;5.43;;;2.00;;
20908;SDS011;10614;53.198;6.570;2022-08-25T04:49:08;4.22;;;2.10;;
20908;SDS011;10614;53.198;6.570;2022-08-25T04:51:11;3.70;;;2.08;;
20908;SDS011;10614;53.198;6.570;2022-08-25T04:53:15;4.22;;;2.38;;
20908;SDS011;10614;53.198;6.570;2022-08-25T04:55:19;3.55;;;2.05;;
20908;SDS011;10614;53.198;6.570;2022-08-25T04:57:20;4.55;;;2.53;;
20908;SDS011;10614;53.198;6.570;2022-08-25T04:59:22;5.53;;;2.60;;
20908;SDS011;10614;53.198;6.570;2022-08-25T05:01:25;6.13;;;3.00;;
20908;SDS011;10614;53.198;6.570;2022-08-25T05:03:27;6.22;;;3.15;;
20908;SDS011;10614;53.198;6.570;2022-08-25T05:05:29;6.10;;;2.90;;
20908;SDS011;10614;53.198;6.570;2022-08-25T05:07:31;7.35;;;3.05;;
20908;SDS011;10614;53.198;6.570;2022-08-25T05:09:33;7.22;;;3.35;;
20908;SDS011;10614;53.198;6.570;2022-08-25T05:11:38;6.47;;;3.35;;
20908;SDS011;10614;53.198;6.570;2022-08-25T05:13:41;9.27;;;3.67;;
20908;SDS011;10614;53.198;6.570;2022-08-25T05:15:49;6.80;;;3.65;;
20908;SDS011;10614;53.198;6.570;2022-08-25T05:17:52;8.27;;;4.15;;
20908;SDS011;10614;53.198;6.570;2022-08-25T05:19:54;6.68;;;3.47;;
20908;SDS011;10614;53.198;6.570;2022-08-25T05:21:56;5.78;;;3.13;;
20908;SDS011;10614;53.198;6.570;2022-08-25T05:23:59;7.00;;;2.80;;
20908;SDS011;10614;53.198;6.570;2022-08-25T05:26:03;9.57;;;3.85;;
20908;SDS011;10614;53.198;6.570;2022-08-25T05:28:07;4.88;;;3.20;;
20908;SDS011;10614;53.198;6.570;2022-08-25T05:30:09;6.63;;;3.20;;
20908;SDS011;10614;53.198;6.570;2022-08-25T05:32:12;8.85;;;3.47;;
20908;SDS011;10614;53.198;6.570;2022-08-25T05:34:13;5.35;;;3.00;;
20908;SDS011;10614;53.198;6.570;2022-08-25T05:36:16;7.18;;;3.25;;
20908;SDS011;10614;53.198;6.570;2022-08-25T05:38:19;6.07;;;3.15;;
20908;SDS011;10614;53.198;6.570;2022-08-25T05:40:21;7.85;;;4.50;;
20908;SDS011;10614;53.198;6.570;2022-08-25T05:42:23;5.78;;;3.08;;
20908;SDS011;10614;53.198;6.570;2022-08-25T05:44:26;6.68;;;3.28;;
20908;SDS011;10614;53.198;6.570;2022-08-25T05:46:28;4.50;;;2.83;;
20908;SDS011;10614;53.198;6.570;2022-08-25T05:48:29;4.45;;;3.03;;
20908;SDS011;10614;53.198;6.570;2022-08-25T05:50:31;4.47;;;2.92;;
20908;SDS011;10614;53.198;6.570;2022-08-25T05:52:33;7.45;;;3.55;;
20908;SDS011;10614;53.198;6.570;2022-08-25T05:54:36;5.75;;;2.88;;
20908;SDS011;10614;53.198;6.570;2022-08-25T05:56:38;4.70;;;2.85;;
20908;SDS011;10614;53.198;6.570;2022-08-25T05:58:40;7.43;;;4.00;;
20908;SDS011;10614;53.198;6.570;2022-08-25T06:00:43;6.68;;;4.00;;
20908;SDS011;10614;53.198;6.570;2022-08-25T06:02:45;5.88;;;3.03;;
20908;SDS011;10614;53.198;6.570;2022-08-25T06:04:48;7.07;;;3.28;;
20908;SDS011;10614;53.198;6.570;2022-08-25T06:06:50;5.78;;;3.17;;
20908;SDS011;10614;53.198;6.570;2022-08-25T06:08:53;5.63;;;3.22;;
20908;SDS011;10614;53.198;6.570;2022-08-25T06:10:55;5.72;;;3.60;;
20908;SDS011;10614;53.198;6.570;2022-08-25T06:12:57;6.90;;;3.38;;
20908;SDS011;10614;53.198;6.570;2022-08-25T06:14:58;4.88;;;2.88;;
20908;SDS011;10614;53.198;6.570;2022-08-25T06:17:02;6.72;;;3.50;;
20908;SDS011;10614;53.198;6.570;2022-08-25T06:19:04;5.63;;;3.10;;
20908;SDS011;10614;53.198;6.570;2022-08-25T06:21:06;5.80;;;3.28;;
20908;SDS011;10614;53.198;6.570;2022-08-25T06:23:09;7.70;;;3.28;;
20908;SDS011;10614;53.198;6.570;2022-08-25T06:25:12;5.95;;;3.42;;
20908;SDS011;10614;53.198;6.570;2022-08-25T06:27:16;6.32;;;3.60;;
20908;SDS011;10614;53.198;6.570;2022-08-25T06:29:18;8.02;;;3.97;;
20908;SDS011;10614;53.198;6.570;2022-08-25T06:31:21;7.18;;;3.55;;
20908;SDS011;10614;53.198;6.570;2022-08-25T06:33:24;6.57;;;3.70;;
20908;SDS011;10614;53.198;6.570;2022-08-25T06:35:26;7.78;;;3.80;;
20908;SDS011;10614;53.198;6.570;2022-08-25T06:37:28;5.70;;;3.28;;
20908;SDS011;10614;53.198;6.570;2022-08-25T06:39:31;6.80;;;3.25;;
20908;SDS011;10614;53.198;6.570;2022-08-25T06:41:32;6.40;;;3.83;;
20908;SDS011;10614;53.198;6.570;2022-08-25T06:43:34;5.10;;;3.17;;
20908;SDS011;10614;53.198;6.570;2022-08-25T06:45:36;6.07;;;3.83;;
20908;SDS011;10614;53.198;6.570;2022-08-25T06:47:38;5.78;;;3.40;;
20908;SDS011;10614;53.198;6.570;2022-08-25T06:49:41;6.95;;;3.30;;
20908;SDS011;10614;53.198;6.570;2022-08-25T06:51:43;5.38;;;3.30;;
20908;SDS011;10614;53.198;6.570;2022-08-25T06:53:45;5.80;;;3.13;;
20908;SDS011;10614;53.198;6.570;2022-08-25T06:55:54;5.63;;;3.20;;
20908;SDS011;10614;53.198;6.570;2022-08-25T06:57:56;7.18;;;3.58;;
20908;SDS011;10614;53.198;6.570;2022-08-25T06:59:58;8.68;;;2.88;;
20908;SDS011;10614;53.198;6.570;2022-08-25T07:02:00;5.50;;;3.20;;
20908;SDS011;10614;53.198;6.570;2022-08-25T07:04:03;7.75;;;4.18;;
20908;SDS011;10614;53.198;6.570;2022-08-25T07:06:07;5.88;;;3.40;;
20908;SDS011;10614;53.198;6.570;2022-08-25T07:08:09;5.55;;;3.03;;
20908;SDS011;10614;53.198;6.570;2022-08-25T07:10:11;7.28;;;3.28;;
20908;SDS011;10614;53.198;6.570;2022-08-25T07:12:13;4.28;;;2.70;;
20908;SDS011;10614;53.198;6.570;2022-08-25T07:14:16;6.63;;;3.38;;
20908;SDS011;10614;53.198;6.570;2022-08-25T07:16:19;5.47;;;3.35;;
20908;SDS011;10614;53.198;6.570;2022-08-25T07:18:21;6.10;;;3.20;;
20908;SDS011;10614;53.198;6.570;2022-08-25T07:20:23;5.13;;;3.10;;
20908;SDS011;10614;53.198;6.570;2022-08-25T07:22:26;5.72;;;3.20;;
20908;SDS011;10614;53.198;6.570;2022-08-25T07:24:28;6.03;;;3.28;;
20908;SDS011;10614;53.198;6.570;2022-08-25T07:26:30;4.68;;;2.83;;
20908;SDS011;10614;53.198;6.570;2022-08-25T07:28:34;5.10;;;2.70;;
20908;SDS011;10614;53.198;6.570;2022-08-25T07:30:36;4.38;;;2.70;;
20908;SDS011;10614;53.198;6.570;2022-08-25T07:32:37;5.88;;;3.00;;
20908;SDS011;10614;53.198;6.570;2022-08-25T07:34:39;6.20;;;3.13;;
20908;SDS011;10614;53.198;6.570;2022-08-25T07:36:58;4.72;;;2.75;;
20908;SDS011;10614;53.198;6.570;2022-08-25T07:39:04;5.03;;;3.10;;
20908;SDS011;10614;53.198;6.570;2022-08-25T07:41:06;5.55;;;3.20;;
20908;SDS011;10614;53.198;6.570;2022-08-25T07:43:08;7.53;;;3.58;;
20908;SDS011;10614;53.198;6.570;2022-08-25T07:45:10;6.47;;;3.13;;
20908;SDS011;10614;53.198;6.570;2022-08-25T07:47:12;4.93;;;2.70;;
20908;SDS011;10614;53.198;6.570;2022-08-25T07:49:15;6.97;;;3.33;;
20908;SDS011;10614;53.198;6.570;2022-08-25T07:51:16;4.45;;;2.90;;
20908;SDS011;10614;53.198;6.570;2022-08-25T07:53:18;4.97;;;3.10;;
20908;SDS011;10614;53.198;6.570;2022-08-25T07:55:21;5.18;;;2.80;;
20908;SDS011;10614;53.198;6.570;2022-08-25T07:57:23;4.63;;;2.83;;
20908;SDS011;10614;53.198;6.570;2022-08-25T07:59:27;6.05;;;2.80;;
20908;SDS011;10614;53.198;6.570;2022-08-25T08:01:29;4.75;;;2.35;;
20908;SDS011;10614;53.198;6.570;2022-08-25T08:03:30;4.97;;;2.70;;
20908;SDS011;10614;53.198;6.570;2022-08-25T08:05:34;4.43;;;2.72;;
20908;SDS011;10614;53.198;6.570;2022-08-25T08:07:36;6.43;;;2.60;;
20908;SDS011;10614;53.198;6.570;2022-08-25T08:09:38;3.85;;;2.40;;
20908;SDS011;10614;53.198;6.570;2022-08-25T08:11:41;3.75;;;2.40;;
20908;SDS011;10614;53.198;6.570;2022-08-25T08:13:44;4.73;;;2.70;;
20908;SDS011;10614;53.198;6.570;2022-08-25T08:15:46;4.57;;;2.88;;
20908;SDS011;10614;53.198;6.570;2022-08-25T08:17:48;4.90;;;3.15;;
20908;SDS011;10614;53.198;6.570;2022-08-25T08:19:50;4.53;;;2.70;;
20908;SDS011;10614;53.198;6.570;2022-08-25T08:21:52;6.47;;;2.90;;
20908;SDS011;10614;53.198;6.570;2022-08-25T08:23:54;4.80;;;3.00;;
20908;SDS011;10614;53.198;6.570;2022-08-25T08:25:56;5.65;;;2.90;;
20908;SDS011;10614;53.198;6.570;2022-08-25T08:27:59;5.18;;;2.70;;
20908;SDS011;10614;53.198;6.570;2022-08-25T08:30:01;5.22;;;2.88;;
20908;SDS011;10614;53.198;6.570;2022-08-25T08:32:05;4.65;;;2.90;;
20908;SDS011;10614;53.198;6.570;2022-08-25T08:34:08;5.93;;;2.95;;
20908;SDS011;10614;53.198;6.570;2022-08-25T08:36:10;5.68;;;3.03;;
20908;SDS011;10614;53.198;6.570;2022-08-25T08:38:13;7.78;;;3.00;;
20908;SDS011;10614;53.198;6.570;2022-08-25T08:40:17;5.40;;;3.13;;
20908;SDS011;10614;53.198;6.570;2022-08-25T08:42:27;6.43;;;3.45;;
20908;SDS011;10614;53.198;6.570;2022-08-25T08:44:53;4.40;;;3.22;;
20908;SDS011;10614;53.198;6.570;2022-08-25T08:47:08;5.00;;;3.05;;
20908;SDS011;10614;53.198;6.570;2022-08-25T08:49:17;4.75;;;3.20;;
20908;SDS011;10614;53.198;6.570;2022-08-25T08:51:29;6.97;;;2.90;;
20908;SDS011;10614;53.198;6.570;2022-08-25T08:53:37;5.25;;;3.08;;
20908;SDS011;10614;53.198;6.570;2022-08-25T08:55:44;4.22;;;2.90;;
20908;SDS011;10614;53.198;6.570;2022-08-25T08:57:49;6.80;;;3.13;;
20908;SDS011;10614;53.198;6.570;2022-08-25T08:59:57;4.88;;;2.95;;
20908;SDS011;10614;53.198;6.570;2022-08-25T09:02:01;6.35;;;3.30;;
20908;SDS011;10614;53.198;6.570;2022-08-25T09:04:08;5.20;;;2.97;;
20908;SDS011;10614;53.198;6.570;2022-08-25T09:06:17;4.78;;;3.15;;
20908;SDS011;10614;53.198;6.570;2022-08-25T09:08:23;4.80;;;3.15;;
20908;SDS011;10614;53.198;6.570;2022-08-25T09:10:25;5.40;;;3.60;;
20908;SDS011;10614;53.198;6.570;2022-08-25T09:12:35;5.13;;;2.80;;
20908;SDS011;10614;53.198;6.570;2022-08-25T09:14:51;4.97;;;3.15;;
20908;SDS011;10614;53.198;6.570;2022-08-25T09:17:01;5.20;;;2.85;;
20908;SDS011;10614;53.198;6.570;2022-08-25T09:19:08;5.22;;;2.92;;
20908;SDS011;10614;53.198;6.570;2022-08-25T09:21:23;4.50;;;2.78;;
20908;SDS011;10614;53.198;6.570;2022-08-25T09:23:33;6.47;;;2.80;;
20908;SDS011;10614;53.198;6.570;2022-08-25T09:25:44;5.25;;;2.90;;
20908;SDS011;10614;53.198;6.570;2022-08-25T09:27:58;4.68;;;2.65;;
20908;SDS011;10614;53.198;6.570;2022-08-25T09:30:09;4.13;;;2.72;;
20908;SDS011;10614;53.198;6.570;2022-08-25T09:32:14;5.18;;;2.83;;
20908;SDS011;10614;53.198;6.570;2022-08-25T09:34:18;5.00;;;2.72;;
20908;SDS011;10614;53.198;6.570;2022-08-25T09:36:22;4.18;;;2.50;;
20908;SDS011;10614;53.198;6.570;2022-08-25T09:38:25;3.90;;;2.33;;
20908;SDS011;10614;53.198;6.570;2022-08-25T09:40:28;4.40;;;2.50;;
20908;SDS011;10614;53.198;6.570;2022-08-25T09:42:44;4.35;;;2.47;;
20908;SDS011;10614;53.198;6.570;2022-08-25T09:44:48;3.33;;;2.20;;
20908;SDS011;10614;53.198;6.570;2022-08-25T09:46:55;6.07;;;2.72;;
20908;SDS011;10614;53.198;6.570;2022-08-25T09:49:09;5.40;;;3.10;;
20908;SDS011;10614;53.198;6.570;2022-08-25T09:51:18;3.22;;;2.30;;
20908;SDS011;10614;53.198;6.570;2022-08-25T09:53:24;4.32;;;2.28;;
20908;SDS011;10614;53.198;6.570;2022-08-25T09:55:28;8.15;;;3.13;;
20908;SDS011;10614;53.198;6.570;2022-08-25T09:57:34;4.25;;;2.53;;
20908;SDS011;10614;53.198;6.570;2022-08-25T09:59:44;3.72;;;2.20;;
20908;SDS011;10614;53.198;6.570;2022-08-25T10:01:50;4.22;;;2.50;;
20908;SDS011;10614;53.198;6.570;2022-08-25T10:03:57;3.65;;;2.10;;
20908;SDS011;10614;53.198;6.570;2022-08-25T10:06:02;3.67;;;2.10;;
20908;SDS011;10614;53.198;6.570;2022-08-25T10:08:10;3.75;;;2.20;;
20908;SDS011;10614;53.198;6.570;2022-08-25T10:10:15;4.47;;;2.28;;
20908;SDS011;10614;53.198;6.570;2022-08-25T10:12:22;3.95;;;2.47;;
20908;SDS011;10614;53.198;6.570;2022-08-25T10:14:31;4.07;;;2.10;;
20908;SDS011;10614;53.198;6.570;2022-08-25T10:16:37;3.33;;;2.15;;
20908;SDS011;10614;53.198;6.570;2022-08-25T10:18:40;3.30;;;1.95;;
20908;SDS011;10614;53.198;6.570;2022-08-25T10:20:43;3.10;;;2.10;;
20908;SDS011;10614;53.198;6.570;2022-08-25T10:23:08;3.22;;;2.10;;
20908;SDS011;10614;53.198;6.570;2022-08-25T10:25:12;3.00;;;2.00;;
20908;SDS011;10614;53.198;6.570;2022-08-25T10:27:18;3.60;;;1.95;;
20908;SDS011;10614;53.198;6.570;2022-08-25T10:29:37;3.65;;;2.40;;
20908;SDS011;10614;53.198;6.570;2022-08-25T10:32:07;3.75;;;2.33;;
20908;SDS011;10614;53.198;6.570;2022-08-25T10:34:30;4.20;;;2.47;;
20908;SDS011;10614;53.198;6.570;2022-08-25T10:36:47;4.07;;;2.20;;
20908;SDS011;10614;53.198;6.570;2022-08-25T10:38:57;3.30;;;1.98;;
20908;SDS011;10614;53.198;6.570;2022-08-25T10:41:01;3.45;;;2.03;;
20908;SDS011;10614;53.198;6.570;2022-08-25T10:43:23;7.53;;;2.25;;
20908;SDS011;10614;53.198;6.570;2022-08-25T10:45:33;4.10;;;2.10;;
20908;SDS011;10614;53.198;6.570;2022-08-25T10:47:47;4.25;;;2.08;;
20908;SDS011;10614;53.198;6.570;2022-08-25T10:50:00;3.05;;;1.88;;
20908;SDS011;10614;53.198;6.570;2022-08-25T10:52:10;9.20;;;2.63;;
20908;SDS011;10614;53.198;6.570;2022-08-25T10:54:29;2.85;;;1.67;;
20908;SDS011;10614;53.198;6.570;2022-08-25T10:56:42;3.20;;;1.90;;
20908;SDS011;10614;53.198;6.570;2022-08-25T10:58:53;2.35;;;1.77;;
20908;SDS011;10614;53.198;6.570;2022-08-25T11:01:07;3.45;;;2.05;;
20908;SDS011;10614;53.198;6.570;2022-08-25T11:03:17;3.03;;;2.00;;
20908;SDS011;10614;53.198;6.570;2022-08-25T11:05:37;2.95;;;1.80;;
20908;SDS011;10614;53.198;6.570;2022-08-25T11:07:43;3.35;;;1.90;;
20908;SDS011;10614;53.198;6.570;2022-08-25T11:09:48;4.68;;;2.05;;
20908;SDS011;10614;53.198;6.570;2022-08-25T11:11:56;2.85;;;1.95;;
20908;SDS011;10614;53.198;6.570;2022-08-25T11:14:02;2.58;;;1.83;;
20908;SDS011;10614;53.198;6.570;2022-08-25T11:16:08;3.95;;;2.45;;
20908;SDS011;10614;53.198;6.570;2022-08-25T11:18:13;5.03;;;2.00;;
20908;SDS011;10614;53.198;6.570;2022-08-25T11:20:16;2.30;;;1.65;;
20908;SDS011;10614;53.198;6.570;2022-08-25T11:22:23;3.45;;;2.05;;
20908;SDS011;10614;53.198;6.570;2022-08-25T11:24:33;2.40;;;1.80;;
20908;SDS011;10614;53.198;6.570;2022-08-25T11:26:41;3.17;;;2.10;;
20908;SDS011;10614;53.198;6.570;2022-08-25T11:28:51;3.75;;;2.45;;
20908;SDS011;10614;53.198;6.570;2022-08-25T11:30:59;2.83;;;1.98;;
20908;SDS011;10614;53.198;6.570;2022-08-25T11:33:04;3.58;;;2.20;;
20908;SDS011;10614;53.198;6.570;2022-08-25T11:35:07;2.47;;;2.00;;
20908;SDS011;10614;53.198;6.570;2022-08-25T11:37:13;4.20;;;2.72;;
20908;SDS011;10614;53.198;6.570;2022-08-25T11:39:25;3.60;;;2.20;;
20908;SDS011;10614;53.198;6.570;2022-08-25T11:41:44;3.60;;;2.03;;
20908;SDS011;10614;53.198;6.570;2022-08-25T11:44:04;4.07;;;2.03;;
20908;SDS011;10614;53.198;6.570;2022-08-25T11:46:22;5.68;;;2.30;;
20908;SDS011;10614;53.198;6.570;2022-08-25T11:48:34;2.88;;;2.00;;
20908;SDS011;10614;53.198;6.570;2022-08-25T11:50:53;3.40;;;1.80;;
20908;SDS011;10614;53.198;6.570;2022-08-25T11:52:59;4.90;;;2.42;;
20908;SDS011;10614;53.198;6.570;2022-08-25T11:55:18;2.55;;;1.60;;
20908;SDS011;10614;53.198;6.570;2022-08-25T11:57:23;2.80;;;1.73;;
20908;SDS011;10614;53.198;6.570;2022-08-25T12:04:36;3.80;;;1.90;;
20908;SDS011;10614;53.198;6.570;2022-08-25T12:09:19;3.13;;;1.90;;
20908;SDS011;10614;53.198;6.570;2022-08-25T12:13:53;2.88;;;1.85;;
20908;SDS011;10614;53.198;6.570;2022-08-25T12:16:31;2.42;;;1.60;;
20908;SDS011;10614;53.198;6.570;2022-08-25T12:18:40;3.67;;;1.80;;
20908;SDS011;10614;53.198;6.570;2022-08-25T12:23:15;2.50;;;1.75;;
20908;SDS011;10614;53.198;6.570;2022-08-25T12:25:22;2.88;;;1.80;;
20908;SDS011;10614;53.198;6.570;2022-08-25T12:27:37;2.95;;;1.70;;
20908;SDS011;10614;53.198;6.570;2022-08-25T12:29:44;3.15;;;2.20;;
20908;SDS011;10614;53.198;6.570;2022-08-25T12:31:51;3.83;;;1.85;;
20908;SDS011;10614;53.198;6.570;2022-08-25T12:34:09;2.50;;;1.70;;
20908;SDS011;10614;53.198;6.570;2022-08-25T12:36:25;2.50;;;1.70;;
20908;SDS011;10614;53.198;6.570;2022-08-25T12:38:31;3.70;;;1.70;;
20908;SDS011;10614;53.198;6.570;2022-08-25T12:40:37;2.80;;;1.55;;
20908;SDS011;10614;53.198;6.570;2022-08-25T12:43:01;2.30;;;1.33;;
20908;SDS011;10614;53.198;6.570;2022-08-25T12:47:41;2.50;;;1.60;;
20908;SDS011;10614;53.198;6.570;2022-08-25T12:49:46;1.92;;;1.50;;
20908;SDS011;10614;53.198;6.570;2022-08-25T12:51:52;2.00;;;1.38;;